Esquina — 2DOU6 — position and weather

sailwx.info

Track history (hours):
 
Tides and Currents Weather Stations Pressure Air Temp Water Temp Dewpoint Dewpoint Depression Visibility Wind Speed Wind Dir Waves Ship Positions

Esquina

Last reported at 2017-Feb-23 15:33 UTC. Time now 2017-Feb-23 16:11 UTC.
Position N 47°40' W 003°19'.

Type: Other ship. MMSI: 235080801.

Date/timePositionNaut miles runAvg speedWind from/ knotsBaromVisibWave heightAir tempDewpointWater temp
2017-Feb-23 15:33N 47°40' W 003°19'4 4.0
2017-Feb-23 14:33N 47°38' W 003°14'0 0.3
2017-Feb-23 13:33N 47°38' W 003°14'1 0.8
2017-Feb-23 12:33N 47°38' W 003°15'2 2.3
2017-Feb-23 11:33N 47°40' W 003°16'5 4.9
2017-Feb-23 10:33N 47°43' W 003°22'1 0.0
2017-Feb-22 14:25N 47°43' W 003°21'2 2.1
2017-Feb-22 13:22N 47°41' W 003°20'0 0.4
2017-Feb-22 12:21N 47°41' W 003°20'2 2.6
2017-Feb-22 11:30N 47°43' W 003°21'3 2.6
2017-Feb-22 10:32N 47°40' W 003°21'0 0.3
2017-Feb-22 09:17N 47°40' W 003°20'1 1.1
2017-Feb-22 08:21N 47°41' W 003°19'1 0.9
2017-Feb-22 07:27N 47°40' W 003°20'2 2.6
2017-Feb-22 06:32N 47°43' W 003°21'0 0.0
2017-Feb-21 15:26N 47°43' W 003°21'3 3.0
2017-Feb-21 14:32N 47°40' W 003°19'0 0.3
2017-Feb-21 13:33N 47°40' W 003°19'0 0.4
2017-Feb-21 12:31N 47°40' W 003°20'3 3.1
2017-Feb-21 11:33N 47°43' W 003°21'3 1.6
2017-Feb-21 09:33N 47°40' W 003°19'1 0.7
2017-Feb-21 08:33N 47°40' W 003°19'0 0.3
2017-Feb-21 07:33N 47°40' W 003°20'3 2.6
2017-Feb-21 06:33N 47°43' W 003°21'  
2017-Feb-17 12:33N 47°44' W 003°21'8 7.9
2017-Feb-17 11:33N 47°36' W 003°20'3 3.0
2017-Feb-17 10:33N 47°37' W 003°24'1 0.7
2017-Feb-17 09:34N 47°37' W 003°23'3 3.0
2017-Feb-17 08:32N 47°36' W 003°19'  
Track history (hours):
 
Tides and Currents Weather Stations Pressure Air Temp Water Temp Dewpoint Dewpoint Depression Visibility Wind Speed Wind Dir Waves Ship Positions

Esquina

Last reported at 2017-Feb-23 15:33 UTC. Time now 2017-Feb-23 16:11 UTC.
Position N 47°40' W 003°19'.

Type: Other ship. MMSI: 235080801.

Date/timePositionNaut miles runAvg speedWind from/ knotsBaromVisibWave heightAir tempDewpointWater temp
2017-Feb-23 15:33N 47°40' W 003°19'4 4.0
2017-Feb-23 14:33N 47°38' W 003°14'0 0.3
2017-Feb-23 13:33N 47°38' W 003°14'1 0.8
2017-Feb-23 12:33N 47°38' W 003°15'2 2.3
2017-Feb-23 11:33N 47°40' W 003°16'5 4.9
2017-Feb-23 10:33N 47°43' W 003°22'1 0.0
2017-Feb-22 14:25N 47°43' W 003°21'2 2.1
2017-Feb-22 13:22N 47°41' W 003°20'0 0.4
2017-Feb-22 12:21N 47°41' W 003°20'2 2.6
2017-Feb-22 11:30N 47°43' W 003°21'3 2.6
2017-Feb-22 10:32N 47°40' W 003°21'0 0.3
2017-Feb-22 09:17N 47°40' W 003°20'1 1.1
2017-Feb-22 08:21N 47°41' W 003°19'1 0.9
2017-Feb-22 07:27N 47°40' W 003°20'2 2.6
2017-Feb-22 06:32N 47°43' W 003°21'0 0.0
2017-Feb-21 15:26N 47°43' W 003°21'3 3.0
2017-Feb-21 14:32N 47°40' W 003°19'0 0.3
2017-Feb-21 13:33N 47°40' W 003°19'0 0.4
2017-Feb-21 12:31N 47°40' W 003°20'3 3.1
2017-Feb-21 11:33N 47°43' W 003°21'3 1.6
2017-Feb-21 09:33N 47°40' W 003°19'1 0.7
2017-Feb-21 08:33N 47°40' W 003°19'0 0.3
2017-Feb-21 07:33N 47°40' W 003°20'3 2.6
2017-Feb-21 06:33N 47°43' W 003°21'  
2017-Feb-17 12:33N 47°44' W 003°21'8 7.9
2017-Feb-17 11:33N 47°36' W 003°20'3 3.0
2017-Feb-17 10:33N 47°37' W 003°24'1 0.7
2017-Feb-17 09:34N 47°37' W 003°23'3 3.0
2017-Feb-17 08:32N 47°36' W 003°19'  

Dump ship's entire track history